Torresdale South, Pennsylvania
Current Conditions -  °F | °C
As of 12:54 PM on Sunday 28 Dec 2014 (Local Time) from KPNE Reporting Station
Few Clouds Few Clouds  
Wind Chill: 55°   Ceiling: Unl
Heat Index: 55°   Visibility: 10mi
Dew Point: 39°   Wind: 8mph
Humidity: 55%   Direction: 290°WNW
Pressure: 29.93"   Gusts: NA
Location:  40.0685°N, 75.0042°W
Report Text: KPNE 281754Z AUTO 29007KT 10SM FEW120 13/04 A2993 RMK AO2 SLP135 60000 T01280039 10128 20078 56011 TSNO
Loading
Personal Weather Stations






























Interactive Weather Map New forecast layout! Learn more

10-Day Weather Forecast

Advertisements
Track Severe Weather on mobile